createdAt,value
2022-08-07T00:00:26.331Z,6.13
2022-08-07T00:02:53.977Z,6.93
2022-08-07T00:05:23.709Z,7.10
2022-08-07T00:07:59.929Z,8.05
2022-08-07T00:10:31.005Z,8.40
2022-08-07T00:13:09.852Z,7.85
2022-08-07T00:15:51.646Z,8.07
2022-08-07T00:18:25.317Z,8.07
2022-08-07T00:20:55.209Z,8.13
2022-08-07T00:23:24.407Z,8.50
2022-08-07T00:25:58.861Z,8.10
2022-08-07T00:31:16.702Z,8.70
2022-08-07T00:33:47.724Z,8.10
2022-08-07T00:36:15.241Z,7.88
2022-08-07T00:38:44.716Z,7.85
2022-08-07T00:41:14.754Z,7.63
2022-08-07T00:44:00.978Z,8.15
2022-08-07T00:46:33.213Z,7.63
2022-08-07T00:49:03.132Z,8.05
2022-08-07T00:51:57.211Z,7.97
2022-08-07T00:54:19.886Z,8.05
2022-08-07T00:56:49.581Z,8.07
2022-08-07T00:59:20.241Z,9.27
2022-08-07T01:02:02.251Z,7.68
2022-08-07T01:04:30.218Z,8.10
2022-08-07T01:06:58.148Z,8.00
2022-08-07T01:09:51.230Z,8.45
2022-08-07T01:12:29.720Z,8.40
2022-08-07T01:15:01.118Z,8.98
2022-08-07T01:17:30.535Z,8.82
2022-08-07T01:20:04.906Z,9.10
2022-08-07T01:22:34.669Z,8.50
2022-08-07T01:25:05.257Z,8.52
2022-08-07T01:27:51.660Z,7.90
2022-08-07T01:30:19.476Z,8.52
2022-08-07T01:32:47.478Z,7.40
2022-08-07T01:35:17.299Z,8.40
2022-08-07T01:37:47.807Z,8.13
2022-08-07T01:40:21.414Z,10.43
2022-08-07T01:43:01.338Z,9.02
2022-08-07T01:45:37.127Z,8.65
2022-08-07T01:48:18.319Z,8.68
2022-08-07T01:51:24.444Z,8.63
2022-08-07T01:54:08.879Z,8.60
2022-08-07T01:56:55.867Z,8.18
2022-08-07T01:59:48.341Z,8.52
2022-08-07T02:02:32.558Z,8.82
2022-08-07T02:05:06.519Z,8.07
2022-08-07T02:07:50.036Z,8.30
2022-08-07T02:10:28.517Z,7.63
2022-08-07T02:13:00.364Z,8.43
2022-08-07T02:15:39.390Z,7.35
2022-08-07T02:18:12.747Z,8.75
2022-08-07T02:20:42.902Z,7.70
2022-08-07T02:23:19.992Z,8.33
2022-08-07T02:26:31.765Z,8.68
2022-08-07T02:28:44.617Z,8.20
2022-08-07T02:31:29.087Z,8.75
2022-08-07T02:34:02.912Z,7.60
2022-08-07T02:36:41.392Z,8.02
2022-08-07T02:39:16.187Z,8.70
2022-08-07T02:41:54.425Z,8.68
2022-08-07T02:44:27.765Z,8.02
2022-08-07T02:47:07.393Z,8.18
2022-08-07T02:49:57.852Z,7.47
2022-08-07T02:52:35.232Z,7.63
2022-08-07T02:55:28.314Z,8.55
2022-08-07T02:58:16.590Z,8.15
2022-08-07T03:00:52.854Z,8.23
2022-08-07T03:03:23.399Z,8.80
2022-08-07T03:05:56.337Z,8.02
2022-08-07T03:08:26.777Z,8.18
2022-08-07T03:11:00.341Z,7.80
2022-08-07T03:13:39.016Z,7.65
2022-08-07T03:16:23.069Z,8.85
2022-08-07T03:18:59.488Z,8.55
2022-08-07T03:21:33.118Z,8.10
2022-08-07T03:24:21.160Z,8.60
2022-08-07T03:26:59.014Z,7.72
2022-08-07T03:29:49.611Z,8.30
2022-08-07T03:32:34.167Z,7.75
2022-08-07T03:35:17.512Z,7.53
2022-08-07T03:37:55.078Z,9.13
2022-08-07T03:40:31.023Z,8.27
2022-08-07T03:43:14.359Z,8.00
2022-08-07T03:45:51.415Z,8.48
2022-08-07T03:48:25.857Z,8.90
2022-08-07T03:50:57.791Z,8.50
2022-08-07T03:54:02.085Z,8.73
2022-08-07T03:56:33.402Z,9.15
2022-08-07T03:59:10.075Z,8.30
2022-08-07T04:01:46.863Z,8.43
2022-08-07T04:04:17.960Z,7.22
2022-08-07T04:06:51.002Z,7.93
2022-08-07T04:09:23.229Z,7.53
2022-08-07T04:12:21.252Z,7.68
2022-08-07T04:14:49.122Z,8.45
2022-08-07T04:17:21.538Z,7.80
2022-08-07T04:19:56.385Z,8.52
2022-08-07T04:22:29.234Z,7.40
2022-08-07T04:25:08.869Z,8.05
2022-08-07T04:27:44.419Z,7.53
2022-08-07T04:30:21.660Z,7.00
2022-08-07T04:33:15.704Z,7.13
2022-08-07T04:35:50.225Z,7.47
2022-08-07T04:38:23.001Z,8.10
2022-08-07T04:40:56.542Z,8.90
2022-08-07T04:44:11.301Z,8.32
2022-08-07T04:47:04.918Z,7.82
2022-08-07T04:50:12.355Z,8.20
2022-08-07T04:53:00.291Z,6.95
2022-08-07T04:58:14.033Z,7.70
2022-08-07T05:00:11.565Z,7.53
2022-08-07T05:02:30.001Z,7.15
2022-08-07T05:05:53.314Z,7.53
2022-08-07T05:11:58.610Z,7.88
2022-08-07T05:14:53.262Z,7.07
2022-08-07T05:17:51.929Z,6.88
2022-08-07T05:20:10.104Z,7.03
2022-08-07T05:22:41.785Z,6.72
2022-08-07T05:25:25.591Z,6.95
2022-08-07T05:28:02.553Z,6.70
2022-08-07T05:30:47.086Z,7.25
2022-08-07T05:33:17.977Z,7.47
2022-08-07T05:35:51.603Z,6.65
2022-08-07T05:38:58.347Z,6.45
2022-08-07T05:41:14.137Z,6.72
2022-08-07T05:44:07.780Z,6.00
2022-08-07T05:46:38.942Z,7.13
2022-08-07T05:49:11.791Z,6.65
2022-08-07T05:51:46.522Z,5.88
2022-08-07T05:54:31.260Z,6.07
2022-08-07T05:57:10.007Z,5.82
2022-08-07T05:59:57.615Z,6.03
2022-08-07T06:02:40.514Z,6.30
2022-08-07T06:05:15.911Z,5.30
2022-08-07T06:08:29.341Z,5.32
2022-08-07T06:10:39.469Z,5.53
2022-08-07T06:13:13.726Z,4.68
2022-08-07T06:15:46.029Z,5.15
2022-08-07T06:18:24.979Z,4.35
2022-08-07T06:22:14.500Z,4.60
2022-08-07T06:24:37.730Z,4.43
2022-08-07T06:26:34.128Z,4.18
2022-08-07T06:29:02.269Z,4.35
2022-08-07T06:31:46.774Z,4.63
2022-08-07T06:34:20.740Z,4.10
2022-08-07T06:36:51.867Z,4.30
2022-08-07T06:40:17.802Z,4.18
2022-08-07T06:42:32.842Z,4.05
2022-08-07T06:45:17.969Z,4.38
2022-08-07T06:47:58.399Z,4.22
2022-08-07T06:50:49.067Z,4.38
2022-08-07T06:54:11.719Z,3.80
2022-08-07T06:56:17.699Z,3.95
2022-08-07T07:00:12.467Z,4.13
2022-08-07T07:01:50.597Z,4.18
2022-08-07T07:04:32.784Z,4.28
2022-08-07T07:07:18.899Z,4.50
2022-08-07T07:09:50.966Z,4.30
2022-08-07T07:12:36.535Z,4.18
2022-08-07T07:15:23.516Z,4.57
2022-08-07T07:18:03.164Z,4.93
2022-08-07T07:20:42.441Z,5.20
2022-08-07T07:24:05.930Z,4.95
2022-08-07T07:26:31.543Z,4.43
2022-08-07T07:29:38.518Z,4.88
2022-08-07T07:31:52.570Z,4.53
2022-08-07T07:34:31.097Z,4.70
2022-08-07T07:37:14.817Z,4.80
2022-08-07T07:39:55.760Z,4.07
2022-08-07T07:42:33.187Z,4.43
2022-08-07T07:45:06.172Z,4.22
2022-08-07T07:47:52.129Z,3.97
2022-08-07T07:50:34.370Z,4.28
2022-08-07T07:53:20.535Z,4.00
2022-08-07T07:55:57.897Z,4.90
2022-08-07T07:58:37.027Z,3.55
2022-08-07T08:02:03.336Z,4.13
2022-08-07T08:04:10.666Z,4.68
2022-08-07T08:06:50.706Z,4.38
2022-08-07T08:09:22.929Z,4.40
2022-08-07T08:12:03.082Z,4.32
2022-08-07T08:14:36.002Z,4.65
2022-08-07T08:18:36.432Z,4.90
2022-08-07T08:20:19.365Z,4.70
2022-08-07T08:23:08.389Z,4.80
2022-08-07T08:26:04.607Z,4.28
2022-08-07T08:28:39.165Z,4.13
2022-08-07T08:31:16.284Z,4.68
2022-08-07T08:33:55.414Z,4.10
2022-08-07T08:36:30.405Z,4.70
2022-08-07T08:39:02.025Z,3.97
2022-08-07T08:41:58.455Z,4.40
2022-08-07T08:44:53.162Z,4.78
2022-08-07T08:47:52.210Z,4.13
2022-08-07T08:50:28.154Z,3.97
2022-08-07T08:53:02.794Z,4.50
2022-08-07T08:56:25.305Z,4.75
2022-08-07T08:59:13.781Z,4.15
2022-08-07T09:02:03.544Z,4.95
2022-08-07T09:05:02.271Z,4.57
2022-08-07T09:08:03.725Z,4.05
2022-08-07T09:11:01.134Z,4.15
2022-08-07T09:13:44.015Z,4.05
2022-08-07T09:16:30.478Z,4.63
2022-08-07T09:19:01.061Z,4.80
2022-08-07T09:22:22.572Z,4.60
2022-08-07T09:25:11.821Z,4.88
2022-08-07T09:28:05.405Z,5.00
2022-08-07T09:30:55.486Z,4.72
2022-08-07T09:33:57.334Z,4.60
2022-08-07T09:36:35.665Z,4.40
2022-08-07T09:39:55.124Z,4.40
2022-08-07T09:42:50.273Z,4.55
2022-08-07T09:48:50.240Z,4.38
2022-08-07T09:52:15.551Z,4.70
2022-08-07T09:54:58.012Z,4.50
2022-08-07T09:58:03.907Z,4.63
2022-08-07T10:01:08.495Z,4.65
2022-08-07T10:04:06.452Z,4.55
2022-08-07T10:06:55.673Z,4.53
2022-08-07T10:10:01.062Z,4.45
2022-08-07T10:12:39.660Z,5.15
2022-08-07T10:16:00.316Z,4.38
2022-08-07T10:19:01.448Z,3.97
2022-08-07T10:22:12.261Z,4.95
2022-08-07T10:24:46.244Z,6.20
2022-08-07T10:27:17.988Z,4.57
2022-08-07T10:30:05.034Z,5.07
2022-08-07T10:33:13.126Z,4.60
2022-08-07T10:36:36.394Z,4.50
2022-08-07T10:39:41.661Z,5.30
2022-08-07T10:42:36.842Z,4.60
2022-08-07T10:45:57.255Z,5.07
2022-08-07T10:48:36.389Z,4.78
2022-08-07T10:51:16.842Z,4.40
2022-08-07T10:54:23.699Z,5.63
2022-08-07T10:57:15.485Z,5.20
2022-08-07T10:59:52.256Z,4.68
2022-08-07T11:02:34.280Z,4.75
2022-08-07T11:05:35.774Z,5.25
2022-08-07T11:08:46.077Z,5.28
2022-08-07T11:11:35.728Z,5.43
2022-08-07T11:14:43.988Z,5.07
2022-08-07T11:17:23.483Z,5.18
2022-08-07T11:20:49.577Z,5.20
2022-08-07T11:23:55.746Z,5.47
2022-08-07T11:26:38.472Z,5.28
2022-08-07T11:29:43.555Z,5.88
2022-08-07T11:32:25.368Z,5.35
2022-08-07T11:34:58.353Z,4.72
2022-08-07T11:37:57.351Z,5.05
2022-08-07T11:40:34.088Z,4.80
2022-08-07T11:43:54.556Z,4.90
2022-08-07T11:46:22.090Z,4.57
2022-08-07T11:49:51.104Z,4.30
2022-08-07T11:52:28.999Z,4.00
2022-08-07T11:55:01.282Z,5.28
2022-08-07T11:58:00.112Z,4.55
2022-08-07T12:00:37.410Z,4.70
2022-08-07T12:03:45.319Z,4.90
2022-08-07T12:06:37.512Z,4.53
2022-08-07T12:09:24.939Z,4.65
2022-08-07T12:12:12.216Z,4.33
2022-08-07T12:14:51.416Z,4.37
2022-08-07T12:17:33.832Z,4.60
2022-08-07T12:20:09.468Z,4.60
2022-08-07T12:23:09.192Z,4.55
2022-08-07T12:26:03.337Z,4.18
2022-08-07T12:29:04.220Z,4.00
2022-08-07T12:32:04.109Z,4.45
2022-08-07T12:34:39.316Z,4.25
2022-08-07T12:37:16.886Z,4.03
2022-08-07T12:39:54.153Z,3.53
2022-08-07T12:42:28.597Z,3.88
2022-08-07T12:45:14.553Z,3.95
2022-08-07T12:48:27.571Z,4.03
2022-08-07T12:51:12.908Z,4.10
2022-08-07T12:54:37.379Z,4.22
2022-08-07T12:57:04.548Z,4.20
2022-08-07T12:59:54.388Z,3.92
2022-08-07T13:02:34.267Z,3.38
2022-08-07T13:06:03.763Z,3.80
2022-08-07T13:08:56.346Z,3.78
2022-08-07T13:12:02.799Z,4.20
2022-08-07T13:14:37.562Z,3.50
2022-08-07T13:17:59.402Z,3.67
2022-08-07T13:20:51.188Z,4.00
2022-08-07T13:24:00.767Z,3.90
2022-08-07T13:26:41.825Z,4.35
2022-08-07T13:29:34.757Z,4.20
2022-08-07T13:32:32.352Z,3.85
2022-08-07T13:35:21.404Z,4.50
2022-08-07T13:38:26.705Z,4.68
2022-08-07T13:41:06.338Z,4.10
2022-08-07T13:43:42.744Z,4.35
2022-08-07T13:46:24.886Z,4.20
2022-08-07T13:49:00.354Z,3.53
2022-08-07T13:52:19.083Z,3.88
2022-08-07T13:54:28.167Z,4.45
2022-08-07T13:59:33.851Z,4.50
2022-08-07T14:02:10.731Z,4.00
2022-08-07T14:04:47.473Z,4.10
2022-08-07T14:07:23.019Z,4.00
2022-08-07T14:10:17.623Z,4.38
2022-08-07T14:12:56.101Z,4.53
2022-08-07T14:15:31.877Z,4.20
2022-08-07T14:18:24.113Z,3.92
2022-08-07T14:21:07.874Z,4.20
2022-08-07T14:24:00.391Z,3.70
2022-08-07T14:26:51.280Z,4.43
2022-08-07T14:30:07.112Z,4.05
2022-08-07T14:32:30.589Z,4.53
2022-08-07T14:35:03.885Z,4.40
2022-08-07T14:37:38.858Z,4.38
2022-08-07T14:43:58.340Z,4.93
2022-08-07T14:46:01.994Z,4.65
2022-08-07T14:48:34.896Z,4.70
2022-08-07T14:51:16.038Z,4.35
2022-08-07T14:54:08.799Z,4.72
2022-08-07T14:56:34.335Z,5.03
2022-08-07T14:59:13.985Z,5.20
2022-08-07T15:01:58.184Z,4.97
2022-08-07T15:04:26.406Z,4.97
2022-08-07T15:06:57.809Z,5.35
2022-08-07T15:09:59.119Z,5.05
2022-08-07T15:12:30.257Z,5.28
2022-08-07T15:18:14.250Z,5.18
2022-08-07T15:21:03.750Z,5.13
2022-08-07T15:27:04.052Z,5.50
2022-08-07T15:30:09.799Z,5.20
2022-08-07T15:32:39.754Z,5.00
2022-08-07T15:35:16.851Z,5.25
2022-08-07T15:38:17.812Z,5.45
2022-08-07T15:41:00.105Z,5.43
2022-08-07T15:43:52.866Z,5.25
2022-08-07T15:49:17.485Z,5.75
2022-08-07T15:54:34.125Z,4.50
2022-08-07T15:57:05.418Z,5.05
2022-08-07T15:59:40.112Z,4.07
2022-08-07T16:02:49.441Z,4.15
2022-08-07T16:05:20.028Z,4.22
2022-08-07T16:08:31.647Z,4.63
2022-08-07T16:10:52.338Z,4.38
2022-08-07T16:13:39.501Z,4.43
2022-08-07T16:16:47.570Z,3.95
2022-08-07T16:19:42.860Z,3.85
2022-08-07T16:22:36.410Z,3.00
2022-08-07T16:25:07.756Z,2.90
2022-08-07T16:27:41.699Z,3.28
2022-08-07T16:30:30.921Z,3.50
2022-08-07T16:34:03.183Z,3.10
2022-08-07T16:37:02.136Z,3.53
2022-08-07T16:40:04.819Z,4.13
2022-08-07T16:42:33.857Z,4.28
2022-08-07T16:45:14.182Z,4.43
2022-08-07T16:48:02.628Z,4.40
2022-08-07T16:51:20.882Z,4.65
2022-08-07T16:54:08.994Z,4.63
2022-08-07T16:56:39.672Z,4.78
2022-08-07T16:59:21.800Z,4.90
2022-08-07T17:02:14.111Z,4.80
2022-08-07T17:06:02.275Z,5.38
2022-08-07T17:08:00.138Z,4.40
2022-08-07T17:10:54.837Z,4.32
2022-08-07T17:14:18.340Z,4.88
2022-08-07T17:16:55.564Z,4.38
2022-08-07T17:20:02.735Z,5.20
2022-08-07T17:22:49.336Z,5.82
2022-08-07T17:25:47.792Z,4.93
2022-08-07T17:28:20.172Z,5.40
2022-08-07T17:30:59.207Z,5.13
2022-08-07T17:34:32.609Z,5.20
2022-08-07T17:36:26.021Z,5.18
2022-08-07T17:39:10.652Z,5.53
2022-08-07T17:42:03.844Z,5.90
2022-08-07T17:44:50.065Z,5.45
2022-08-07T17:47:41.829Z,4.75
2022-08-07T17:50:55.307Z,6.07
2022-08-07T17:54:01.334Z,6.15
2022-08-07T17:56:49.950Z,5.75
2022-08-07T17:59:36.669Z,6.20
2022-08-07T18:02:30.288Z,5.55
2022-08-07T18:05:27.171Z,6.20
2022-08-07T18:08:24.299Z,5.82
2022-08-07T18:12:06.182Z,5.65
2022-08-07T18:13:55.263Z,5.60
2022-08-07T18:16:58.156Z,5.82
2022-08-07T18:22:48.878Z,5.60
2022-08-07T18:25:40.354Z,5.80
2022-08-07T18:28:35.681Z,6.13
2022-08-07T18:31:18.439Z,5.97
2022-08-07T18:34:35.893Z,6.32
2022-08-07T18:37:00.582Z,6.53
2022-08-07T18:40:07.246Z,6.05
2022-08-07T18:43:09.478Z,7.38
2022-08-07T18:46:25.049Z,6.05
2022-08-07T18:50:32.680Z,5.82
2022-08-07T18:52:37.946Z,6.53
2022-08-07T18:55:41.782Z,6.43
2022-08-07T18:58:27.958Z,6.57
2022-08-07T19:02:18.671Z,5.85
2022-08-07T19:04:25.069Z,6.45
2022-08-07T19:07:10.259Z,6.45
2022-08-07T19:09:59.127Z,6.18
2022-08-07T19:12:48.818Z,6.50
2022-08-07T19:16:05.678Z,6.40
2022-08-07T19:18:35.537Z,5.70
2022-08-07T19:21:56.123Z,6.40
2022-08-07T19:24:43.591Z,6.13
2022-08-07T19:28:58.534Z,6.35
2022-08-07T19:31:00.841Z,6.72
2022-08-07T19:33:12.725Z,5.47
2022-08-07T19:35:44.543Z,5.68
2022-08-07T19:38:16.683Z,6.38
2022-08-07T19:40:50.797Z,5.65
2022-08-07T19:43:48.913Z,5.90
2022-08-07T19:46:17.927Z,6.63
2022-08-07T19:48:56.136Z,6.18
2022-08-07T19:51:52.211Z,4.97
2022-08-07T19:54:33.412Z,5.63
2022-08-07T19:58:00.787Z,4.78
2022-08-07T20:00:02.237Z,4.28
2022-08-07T20:02:39.231Z,4.38
2022-08-07T20:05:12.900Z,4.35
2022-08-07T20:07:47.089Z,3.90
2022-08-07T20:10:35.583Z,3.65
2022-08-07T20:13:22.646Z,3.53
2022-08-07T20:15:57.637Z,4.05
2022-08-07T20:18:33.585Z,4.28
2022-08-07T20:21:21.221Z,3.90
2022-08-07T20:23:58.019Z,4.28
2022-08-07T20:26:44.927Z,5.00
2022-08-07T20:29:47.949Z,4.78
2022-08-07T20:32:11.626Z,4.70
2022-08-07T20:34:58.622Z,5.03
2022-08-07T20:37:46.843Z,4.57
2022-08-07T20:40:32.205Z,4.20
2022-08-07T20:43:02.634Z,4.50
2022-08-07T20:46:29.714Z,4.15
2022-08-07T20:48:29.682Z,4.75
2022-08-07T20:51:00.847Z,4.55
2022-08-07T20:54:03.913Z,5.05
2022-08-07T20:56:30.698Z,4.65
2022-08-07T20:59:05.410Z,4.82
2022-08-07T21:01:45.706Z,4.57
2022-08-07T21:04:28.046Z,5.18
2022-08-07T21:07:03.894Z,4.68
2022-08-07T21:09:51.725Z,4.68
2022-08-07T21:12:26.021Z,4.47
2022-08-07T21:14:58.763Z,4.50
2022-08-07T21:18:06.624Z,4.65
2022-08-07T21:20:29.395Z,4.47
2022-08-07T21:23:07.664Z,4.68
2022-08-07T21:25:56.932Z,4.70
2022-08-07T21:28:51.194Z,4.18
2022-08-07T21:32:47.504Z,4.28
2022-08-07T21:34:48.873Z,4.53
2022-08-07T21:37:58.692Z,4.38
2022-08-07T21:40:38.211Z,4.25
2022-08-07T21:43:11.064Z,3.90
2022-08-07T21:46:24.443Z,4.25
2022-08-07T21:49:04.760Z,4.25
2022-08-07T21:52:11.703Z,4.35
2022-08-07T21:55:00.299Z,3.70
2022-08-07T21:57:51.790Z,4.30
2022-08-07T22:00:25.614Z,4.28
2022-08-07T22:03:30.990Z,4.43
2022-08-07T22:06:06.278Z,4.50
2022-08-07T22:08:41.241Z,4.38
2022-08-07T22:11:21.120Z,3.80
2022-08-07T22:13:57.379Z,4.40
2022-08-07T22:16:46.882Z,4.60
2022-08-07T22:19:23.802Z,4.25
2022-08-07T22:22:27.538Z,4.20
2022-08-07T22:25:03.459Z,4.65
2022-08-07T22:28:30.933Z,4.43
2022-08-07T22:31:58.907Z,4.63
2022-08-07T22:34:53.384Z,4.63
2022-08-07T22:37:27.500Z,4.82
2022-08-07T22:40:33.684Z,4.45
2022-08-07T22:43:10.775Z,4.65
2022-08-07T22:46:41.024Z,4.22
2022-08-07T22:49:16.191Z,4.78
2022-08-07T22:51:49.161Z,5.00
2022-08-07T22:54:19.987Z,5.38
2022-08-07T22:56:58.008Z,5.13
2022-08-07T22:59:49.802Z,5.32
2022-08-07T23:02:37.690Z,5.15
2022-08-07T23:06:09.905Z,5.80
2022-08-07T23:08:34.338Z,5.22
2022-08-07T23:11:16.549Z,4.97
2022-08-07T23:14:16.830Z,5.35
2022-08-07T23:17:19.850Z,5.43
2022-08-07T23:20:40.487Z,5.85
2022-08-07T23:24:05.261Z,5.43
2022-08-07T23:26:30.734Z,5.68
2022-08-07T23:30:36.265Z,7.15
2022-08-07T23:34:18.929Z,7.82
2022-08-07T23:35:25.783Z,6.97
2022-08-07T23:38:36.518Z,6.95
2022-08-07T23:41:11.469Z,7.07
2022-08-07T23:44:18.156Z,7.22
2022-08-07T23:47:07.163Z,6.70
2022-08-07T23:50:16.436Z,7.03
2022-08-07T23:53:06.191Z,6.50
2022-08-07T23:55:55.364Z,6.63
2022-08-07T23:58:32.541Z,5.82
